createdAt,value
2022-11-02T00:00:15.875Z,11.31
2022-11-02T00:01:14.611Z,11.29
2022-11-02T00:02:14.488Z,11.28
2022-11-02T00:03:15.670Z,11.26
2022-11-02T00:04:14.495Z,11.25
2022-11-02T00:05:15.393Z,11.24
2022-11-02T00:06:14.472Z,11.23
2022-11-02T00:07:14.420Z,11.21
2022-11-02T00:08:14.400Z,11.20
2022-11-02T00:09:14.339Z,11.19
2022-11-02T00:10:14.338Z,11.18
2022-11-02T00:11:15.277Z,11.17
2022-11-02T00:12:14.435Z,11.15
2022-11-02T00:13:14.438Z,11.15
2022-11-02T00:14:14.378Z,11.14
2022-11-02T00:15:14.320Z,11.13
2022-11-02T00:16:14.261Z,11.13
2022-11-02T00:17:20.726Z,11.12
2022-11-02T00:18:14.260Z,11.12
2022-11-02T00:19:14.356Z,11.11
2022-11-02T00:20:14.214Z,11.11
2022-11-02T00:21:14.196Z,11.10
2022-11-02T00:22:14.195Z,11.10
2022-11-02T00:23:15.121Z,11.09
2022-11-02T00:24:14.126Z,11.08
2022-11-02T00:25:14.139Z,11.08
2022-11-02T00:26:14.155Z,11.07
2022-11-02T00:27:14.211Z,11.07
2022-11-02T00:28:15.067Z,11.06
2022-11-02T00:29:14.112Z,11.05
2022-11-02T00:30:14.199Z,11.04
2022-11-02T00:31:14.085Z,11.04
2022-11-02T00:32:14.072Z,11.03
2022-11-02T00:33:15.059Z,11.02
2022-11-02T00:34:14.049Z,11.02
2022-11-02T00:35:14.014Z,11.01
2022-11-02T00:36:13.998Z,11.00
2022-11-02T00:37:14.012Z,10.99
2022-11-02T00:38:14.926Z,10.99
2022-11-02T00:39:14.018Z,10.98
2022-11-02T00:40:13.981Z,10.98
2022-11-02T00:41:13.973Z,10.98
2022-11-02T00:42:14.000Z,10.97
2022-11-02T00:43:14.849Z,10.97
2022-11-02T00:44:13.873Z,10.97
2022-11-02T00:45:13.883Z,10.97
2022-11-02T00:46:13.889Z,10.97
2022-11-02T00:47:13.881Z,10.97
2022-11-02T00:48:14.805Z,10.97
2022-11-02T00:49:13.856Z,10.98
2022-11-02T00:50:13.799Z,10.98
2022-11-02T00:51:13.796Z,10.98
2022-11-02T00:52:13.852Z,10.98
2022-11-02T00:53:13.782Z,10.99
2022-11-02T00:54:14.736Z,10.99
2022-11-02T00:55:15.637Z,10.99
2022-11-02T00:56:13.765Z,10.99
2022-11-02T00:57:13.855Z,10.99
2022-11-02T00:58:13.712Z,10.99
2022-11-02T00:59:14.690Z,10.99
2022-11-02T01:00:13.959Z,10.98
2022-11-02T01:01:13.867Z,10.97
2022-11-02T01:02:13.985Z,10.97
2022-11-02T01:03:13.718Z,10.96
2022-11-02T01:04:13.749Z,10.95
2022-11-02T01:05:14.643Z,10.94
2022-11-02T01:06:13.616Z,10.93
2022-11-02T01:07:13.755Z,10.93
2022-11-02T01:08:13.628Z,10.92
2022-11-02T01:09:13.774Z,10.91
2022-11-02T01:10:13.571Z,10.90
2022-11-02T01:11:15.830Z,10.89
2022-11-02T01:12:13.584Z,10.88
2022-11-02T01:13:13.524Z,10.87
2022-11-02T01:14:13.554Z,10.87
2022-11-02T01:15:13.517Z,10.86
2022-11-02T01:16:13.543Z,10.85
2022-11-02T01:17:14.471Z,10.85
2022-11-02T01:18:13.452Z,10.84
2022-11-02T01:19:13.572Z,10.84
2022-11-02T01:20:13.489Z,10.83
2022-11-02T01:21:13.449Z,10.83
2022-11-02T01:22:13.491Z,10.83
2022-11-02T01:23:14.473Z,10.82
2022-11-02T01:24:13.482Z,10.81
2022-11-02T01:25:13.409Z,10.81
2022-11-02T01:26:13.459Z,10.80
2022-11-02T01:27:13.399Z,10.79
2022-11-02T01:28:14.315Z,10.79
2022-11-02T01:29:13.674Z,10.78
2022-11-02T01:30:13.354Z,10.77
2022-11-02T01:31:13.336Z,10.77
2022-11-02T01:32:13.577Z,10.76
2022-11-02T01:33:13.326Z,10.75
2022-11-02T01:34:15.238Z,10.74
2022-11-02T01:35:13.499Z,10.73
2022-11-02T01:36:14.275Z,10.72
2022-11-02T01:37:13.298Z,10.71
2022-11-02T01:38:13.207Z,10.70
2022-11-02T01:39:14.141Z,10.69
2022-11-02T01:40:13.219Z,10.67
2022-11-02T01:41:13.198Z,10.66
2022-11-02T01:42:13.278Z,10.65
2022-11-02T01:43:13.236Z,10.63
2022-11-02T01:44:13.165Z,10.62
2022-11-02T01:45:14.078Z,10.61
2022-11-02T01:46:13.157Z,10.60
2022-11-02T01:47:13.154Z,10.59
2022-11-02T01:48:14.098Z,10.58
2022-11-02T01:49:13.114Z,10.57
2022-11-02T01:50:13.999Z,10.56
2022-11-02T01:51:13.097Z,10.54
2022-11-02T01:52:13.151Z,10.54
2022-11-02T01:53:13.055Z,10.53
2022-11-02T01:54:13.111Z,10.52
2022-11-02T01:55:13.041Z,10.51
2022-11-02T01:56:13.965Z,10.50
2022-11-02T01:57:13.124Z,10.49
2022-11-02T01:58:12.937Z,10.48
2022-11-02T01:59:12.960Z,10.47
2022-11-02T02:00:12.922Z,10.47
2022-11-02T02:01:12.993Z,10.47
2022-11-02T02:02:13.994Z,10.46
2022-11-02T02:03:12.887Z,10.46
2022-11-02T02:04:12.901Z,10.45
2022-11-02T02:05:12.856Z,10.44
2022-11-02T02:06:12.954Z,10.43
2022-11-02T02:07:13.833Z,10.42
2022-11-02T02:08:12.865Z,10.42
2022-11-02T02:09:12.815Z,10.41
2022-11-02T02:10:12.871Z,10.40
2022-11-02T02:11:12.909Z,10.40
2022-11-02T02:12:13.777Z,10.39
2022-11-02T02:13:12.781Z,10.38
2022-11-02T02:14:12.766Z,10.37
2022-11-02T02:15:12.746Z,10.36
2022-11-02T02:16:12.804Z,10.35
2022-11-02T02:17:12.812Z,10.33
2022-11-02T02:18:13.758Z,10.31
2022-11-02T02:19:12.754Z,10.28
2022-11-02T02:20:12.818Z,10.26
2022-11-02T02:21:12.727Z,10.23
2022-11-02T02:22:12.677Z,10.20
2022-11-02T02:23:12.664Z,10.18
2022-11-02T02:24:13.637Z,10.16
2022-11-02T02:25:12.629Z,10.14
2022-11-02T02:26:12.635Z,10.12
2022-11-02T02:27:12.668Z,10.11
2022-11-02T02:28:12.613Z,10.10
2022-11-02T02:29:12.554Z,10.09
2022-11-02T02:30:13.518Z,10.08
2022-11-02T02:31:12.521Z,10.08
2022-11-02T02:32:12.572Z,10.07
2022-11-02T02:33:12.522Z,10.07
2022-11-02T02:34:12.489Z,10.07
2022-11-02T02:35:13.458Z,10.07
2022-11-02T02:36:12.509Z,10.07
2022-11-02T02:37:12.486Z,10.07
2022-11-02T02:38:12.552Z,10.07
2022-11-02T02:39:12.457Z,10.07
2022-11-02T02:40:12.458Z,10.07
2022-11-02T02:41:13.500Z,10.06
2022-11-02T02:42:12.410Z,10.06
2022-11-02T02:43:12.492Z,10.05
2022-11-02T02:44:12.412Z,10.04
2022-11-02T02:45:15.495Z,10.03
2022-11-02T02:46:13.398Z,10.02
2022-11-02T02:47:12.486Z,10.01
2022-11-02T02:48:13.422Z,10.00
2022-11-02T02:49:12.429Z,9.99
2022-11-02T02:50:12.334Z,9.99
2022-11-02T02:51:12.360Z,9.98
2022-11-02T02:52:13.247Z,9.98
2022-11-02T02:53:12.274Z,9.97
2022-11-02T02:54:12.345Z,9.97
2022-11-02T02:55:12.228Z,9.96
2022-11-02T02:56:12.274Z,9.96
2022-11-02T02:57:13.164Z,9.95
2022-11-02T02:58:12.178Z,9.94
2022-11-02T02:59:12.203Z,9.93
2022-11-02T03:00:12.184Z,9.92
2022-11-02T03:01:12.336Z,9.91
2022-11-02T03:02:13.209Z,9.90
2022-11-02T03:03:12.217Z,9.89
2022-11-02T03:04:12.220Z,9.88
2022-11-02T03:05:12.242Z,9.87
2022-11-02T03:06:12.124Z,9.86
2022-11-02T03:07:13.110Z,9.86
2022-11-02T03:08:12.267Z,9.85
2022-11-02T03:09:13.524Z,9.85
2022-11-02T03:10:12.053Z,9.85
2022-11-02T03:11:12.034Z,9.84
2022-11-02T03:12:13.004Z,9.84
2022-11-02T03:13:11.986Z,9.83
2022-11-02T03:14:12.012Z,9.83
2022-11-02T03:15:11.970Z,9.83
2022-11-02T03:16:11.999Z,9.83
2022-11-02T03:17:11.983Z,9.83
2022-11-02T03:18:12.879Z,9.83
2022-11-02T03:19:11.964Z,9.83
2022-11-02T03:20:11.916Z,9.83
2022-11-02T03:21:11.902Z,9.82
2022-11-02T03:22:11.911Z,9.82
2022-11-02T03:23:11.885Z,9.82
2022-11-02T03:24:12.860Z,9.82
2022-11-02T03:25:11.963Z,9.82
2022-11-02T03:26:11.860Z,9.82
2022-11-02T03:27:11.954Z,9.82
2022-11-02T03:28:11.823Z,9.82
2022-11-02T03:29:12.275Z,9.82
2022-11-02T03:30:12.869Z,9.82
2022-11-02T03:31:11.911Z,9.82
2022-11-02T03:32:11.918Z,9.81
2022-11-02T03:33:12.184Z,9.81
2022-11-02T03:34:12.125Z,9.80
2022-11-02T03:35:13.005Z,9.80
2022-11-02T03:36:11.752Z,9.80
2022-11-02T03:37:12.810Z,9.79
2022-11-02T03:38:11.845Z,9.79
2022-11-02T03:39:11.758Z,9.79
2022-11-02T03:40:13.818Z,9.78
2022-11-02T03:41:11.681Z,9.78
2022-11-02T03:42:11.687Z,9.78
2022-11-02T03:43:11.847Z,9.77
2022-11-02T03:44:18.026Z,9.77
2022-11-02T03:45:12.574Z,9.76
2022-11-02T03:46:11.618Z,9.75
2022-11-02T03:47:11.823Z,9.75
2022-11-02T03:48:11.630Z,9.74
2022-11-02T03:49:11.603Z,9.73
2022-11-02T03:50:11.544Z,9.73
2022-11-02T03:51:12.566Z,9.72
2022-11-02T03:52:11.533Z,9.72
2022-11-02T03:53:11.486Z,9.71
2022-11-02T03:54:11.471Z,9.71
2022-11-02T03:55:11.586Z,9.70
2022-11-02T03:56:12.536Z,9.70
2022-11-02T03:57:11.616Z,9.69
2022-11-02T03:58:11.533Z,9.68
2022-11-02T03:59:11.543Z,9.67
2022-11-02T04:00:11.565Z,9.66
2022-11-02T04:01:11.434Z,9.66
2022-11-02T04:02:12.556Z,9.65
2022-11-02T04:03:11.380Z,9.64
2022-11-02T04:04:11.344Z,9.64
2022-11-02T04:05:11.383Z,9.63
2022-11-02T04:06:11.634Z,9.63
2022-11-02T04:07:12.410Z,9.63
2022-11-02T04:08:11.677Z,9.63
2022-11-02T04:09:11.299Z,9.62
2022-11-02T04:10:11.366Z,9.62
2022-11-02T04:11:11.367Z,9.62
2022-11-02T04:12:12.259Z,9.62
2022-11-02T04:13:11.235Z,9.61
2022-11-02T04:14:11.254Z,9.61
2022-11-02T04:15:11.194Z,9.60
2022-11-02T04:16:11.186Z,9.60
2022-11-02T04:17:11.206Z,9.60
2022-11-02T04:18:12.087Z,9.59
2022-11-02T04:19:11.169Z,9.59
2022-11-02T04:20:11.149Z,9.58
2022-11-02T04:21:11.107Z,9.58
2022-11-02T04:22:11.141Z,9.57
2022-11-02T04:23:11.101Z,9.57
2022-11-02T04:24:12.062Z,9.57
2022-11-02T04:25:11.125Z,9.56
2022-11-02T04:26:11.169Z,9.56
2022-11-02T04:27:11.120Z,9.56
2022-11-02T04:28:11.105Z,9.56
2022-11-02T04:29:11.031Z,9.55
2022-11-02T04:30:11.985Z,9.55
2022-11-02T04:31:11.540Z,9.55
2022-11-02T04:32:11.425Z,9.55
2022-11-02T04:33:11.575Z,9.54
2022-11-02T04:34:11.689Z,9.54
2022-11-02T04:35:10.976Z,9.53
2022-11-02T04:36:12.257Z,9.52
2022-11-02T04:37:11.011Z,9.52
2022-11-02T04:38:10.914Z,9.51
2022-11-02T04:39:10.903Z,9.50
2022-11-02T04:40:11.731Z,9.50
2022-11-02T04:41:11.840Z,9.49
2022-11-02T04:42:10.915Z,9.48
2022-11-02T04:43:10.897Z,9.47
2022-11-02T04:44:10.803Z,9.46
2022-11-02T04:45:10.838Z,9.45
2022-11-02T04:46:11.770Z,9.44
2022-11-02T04:47:10.818Z,9.43
2022-11-02T04:48:10.897Z,9.43
2022-11-02T04:49:11.183Z,9.42
2022-11-02T04:50:11.452Z,9.41
2022-11-02T04:51:10.755Z,9.40
2022-11-02T04:52:11.842Z,9.39
2022-11-02T04:53:10.763Z,9.38
2022-11-02T04:54:10.981Z,9.37
2022-11-02T04:55:10.766Z,9.36
2022-11-02T04:56:10.734Z,9.35
2022-11-02T04:57:16.990Z,9.34
2022-11-02T04:58:10.659Z,9.33
2022-11-02T04:59:10.641Z,9.32
2022-11-02T05:00:10.673Z,9.32
2022-11-02T05:01:10.671Z,9.31
2022-11-02T05:02:11.686Z,9.31
2022-11-02T05:03:12.488Z,9.30
2022-11-02T05:04:10.575Z,9.30
2022-11-02T05:05:11.299Z,9.29
2022-11-02T05:06:10.879Z,9.29
2022-11-02T05:07:10.602Z,9.28
2022-11-02T05:08:11.469Z,9.28
2022-11-02T05:09:10.524Z,9.27
2022-11-02T05:10:10.469Z,9.27
2022-11-02T05:11:10.620Z,9.26
2022-11-02T05:12:10.539Z,9.26
2022-11-02T05:13:11.413Z,9.26
2022-11-02T05:14:10.442Z,9.25
2022-11-02T05:15:10.462Z,9.25
2022-11-02T05:16:10.452Z,9.25
2022-11-02T05:17:10.497Z,9.25
2022-11-02T05:18:14.880Z,9.25
2022-11-02T05:19:11.917Z,9.24
2022-11-02T05:20:10.387Z,9.24
2022-11-02T05:21:10.370Z,9.24
2022-11-02T05:22:16.703Z,9.24
2022-11-02T05:23:10.390Z,9.24
2022-11-02T05:24:16.712Z,9.24
2022-11-02T05:25:10.327Z,9.24
2022-11-02T05:26:10.372Z,9.24
2022-11-02T05:27:10.318Z,9.24
2022-11-02T05:28:10.366Z,9.24
2022-11-02T05:29:10.512Z,9.24
2022-11-02T05:30:11.253Z,9.24
2022-11-02T05:31:10.363Z,9.24
2022-11-02T05:32:10.428Z,9.24
2022-11-02T05:33:10.251Z,9.24
2022-11-02T05:34:10.255Z,9.24
2022-11-02T05:35:11.199Z,9.25
2022-11-02T05:36:10.255Z,9.25
2022-11-02T05:37:10.437Z,9.25
2022-11-02T05:38:10.108Z,9.25
2022-11-02T05:39:10.197Z,9.25
2022-11-02T05:40:11.113Z,9.25
2022-11-02T05:41:10.104Z,9.25
2022-11-02T05:42:10.161Z,9.25
2022-11-02T05:43:10.071Z,9.25
2022-11-02T05:44:10.062Z,9.24
2022-11-02T05:45:52.944Z,10.37
2022-11-02T05:46:52.939Z,9.92
2022-11-02T05:47:53.007Z,9.62
2022-11-02T05:48:52.945Z,9.44
2022-11-02T05:49:52.917Z,9.34
2022-11-02T05:50:53.924Z,9.29
2022-11-02T05:51:53.431Z,9.26
2022-11-02T05:52:52.993Z,9.24
2022-11-02T05:53:53.992Z,9.23
2022-11-02T05:54:52.829Z,9.22
2022-11-02T05:55:52.858Z,9.22
2022-11-02T05:57:14.815Z,9.21
2022-11-02T05:57:52.780Z,9.21
2022-11-02T05:59:14.852Z,9.21
2022-11-02T05:59:52.770Z,9.21
2022-11-02T06:00:53.774Z,9.21
2022-11-02T06:01:52.883Z,9.20
2022-11-02T06:02:53.736Z,9.20
2022-11-02T06:03:54.510Z,9.20
2022-11-02T06:04:52.768Z,9.20
2022-11-02T06:05:52.738Z,9.20
2022-11-02T06:06:52.712Z,9.19
2022-11-02T06:07:52.741Z,9.19
2022-11-02T06:08:53.748Z,9.19
2022-11-02T06:09:52.658Z,9.19
2022-11-02T06:10:52.662Z,9.19
2022-11-02T06:11:52.641Z,9.19
2022-11-02T06:12:52.729Z,9.19
2022-11-02T06:13:53.676Z,9.19
2022-11-02T06:14:52.873Z,9.19
2022-11-02T06:15:52.893Z,9.19
2022-11-02T06:16:52.675Z,9.20
2022-11-02T06:17:52.594Z,9.20
2022-11-02T06:18:53.646Z,9.20
2022-11-02T06:19:52.574Z,9.20
2022-11-02T06:20:52.635Z,9.20
2022-11-02T06:21:52.642Z,9.20
2022-11-02T06:22:52.620Z,9.21
2022-11-02T06:23:52.508Z,9.21
2022-11-02T06:24:54.321Z,9.21
2022-11-02T06:25:52.518Z,9.21
2022-11-02T06:26:52.997Z,9.22
2022-11-02T06:27:52.481Z,9.22
2022-11-02T06:28:52.383Z,9.23
2022-11-02T06:29:52.441Z,9.24
2022-11-02T06:30:53.415Z,9.24
2022-11-02T06:31:52.457Z,9.25
2022-11-02T06:32:52.384Z,9.25
2022-11-02T06:33:52.430Z,9.26
2022-11-02T06:34:52.382Z,9.26
2022-11-02T06:35:52.365Z,9.27
2022-11-02T06:36:53.242Z,9.27
2022-11-02T06:37:52.300Z,9.28
2022-11-02T06:38:52.312Z,9.29
2022-11-02T06:39:52.265Z,9.30
2022-11-02T06:40:53.359Z,9.31
2022-11-02T06:41:53.263Z,9.32
2022-11-02T06:43:10.966Z,9.33
2022-11-02T06:43:53.834Z,9.34
2022-11-02T06:44:52.241Z,9.35
2022-11-02T06:45:52.475Z,9.37
2022-11-02T06:46:52.235Z,9.38
2022-11-02T06:47:53.312Z,9.39
2022-11-02T06:48:52.195Z,9.40
2022-11-02T06:49:52.187Z,9.42
2022-11-02T06:50:53.242Z,9.43
2022-11-02T06:51:52.936Z,9.44
2022-11-02T06:52:53.719Z,9.45
2022-11-02T06:53:52.143Z,9.46
2022-11-02T06:54:53.220Z,9.47
2022-11-02T06:55:52.102Z,9.48
2022-11-02T06:56:52.159Z,9.49
2022-11-02T06:57:52.994Z,9.49
2022-11-02T06:58:52.055Z,9.50
2022-11-02T06:59:54.109Z,9.51
2022-11-02T07:00:52.329Z,9.52
2022-11-02T07:01:52.188Z,9.53
2022-11-02T07:02:52.936Z,9.55
2022-11-02T07:03:51.977Z,9.56
2022-11-02T07:04:51.993Z,9.57
2022-11-02T07:05:51.915Z,9.58
2022-11-02T07:06:51.929Z,9.59
2022-11-02T07:07:52.901Z,9.60
2022-11-02T07:08:52.095Z,9.62
2022-11-02T07:09:51.915Z,9.63
2022-11-02T07:10:51.874Z,9.64
2022-11-02T07:11:51.863Z,9.65
2022-11-02T07:12:52.831Z,9.66
2022-11-02T07:13:51.871Z,9.67
2022-11-02T07:14:51.907Z,9.69
2022-11-02T07:15:51.853Z,9.70
2022-11-02T07:16:51.812Z,9.70
2022-11-02T07:17:52.765Z,9.71
2022-11-02T07:18:51.831Z,9.72
2022-11-02T07:19:51.803Z,9.73
2022-11-02T07:20:51.882Z,9.74
2022-11-02T07:21:51.765Z,9.75
2022-11-02T07:22:51.767Z,9.76
2022-11-02T07:23:52.661Z,9.78
2022-11-02T07:24:51.709Z,9.80
2022-11-02T07:25:51.711Z,9.82
2022-11-02T07:26:51.789Z,9.83
2022-11-02T07:27:51.702Z,9.85
2022-11-02T07:28:58.268Z,9.87
2022-11-02T07:29:53.205Z,9.89
2022-11-02T07:30:51.733Z,9.90
2022-11-02T07:31:52.922Z,9.92
2022-11-02T07:32:51.612Z,9.94
2022-11-02T07:33:52.549Z,9.96
2022-11-02T07:34:51.654Z,9.98
2022-11-02T07:35:58.924Z,10.00
2022-11-02T07:36:51.565Z,10.03
2022-11-02T07:37:51.623Z,10.05
2022-11-02T07:38:57.900Z,10.09
2022-11-02T07:39:51.561Z,10.12
2022-11-02T07:40:51.631Z,10.16
2022-11-02T07:41:52.156Z,10.20
2022-11-02T07:42:54.527Z,10.25
2022-11-02T07:43:51.433Z,10.30
2022-11-02T07:44:52.422Z,10.35
2022-11-02T07:45:51.435Z,10.40
2022-11-02T07:46:55.502Z,10.45
2022-11-02T07:47:51.448Z,10.50
2022-11-02T07:48:51.416Z,10.54
2022-11-02T07:49:52.362Z,10.59
2022-11-02T07:50:51.461Z,10.65
2022-11-02T07:51:51.469Z,10.71
2022-11-02T07:52:51.627Z,10.78
2022-11-02T07:53:51.329Z,10.85
2022-11-02T07:54:52.290Z,10.93
2022-11-02T07:55:52.309Z,11.01
2022-11-02T07:56:51.343Z,11.08
2022-11-02T07:57:51.303Z,11.16
2022-11-02T07:58:51.290Z,11.24
2022-11-02T07:59:57.617Z,11.32
2022-11-02T08:00:55.916Z,11.41
2022-11-02T08:01:52.804Z,11.49
2022-11-02T08:02:51.329Z,11.57
2022-11-02T08:03:51.259Z,11.65
2022-11-02T08:04:51.215Z,11.72
2022-11-02T08:05:52.188Z,11.79
2022-11-02T08:06:51.930Z,11.85
2022-11-02T08:07:51.239Z,11.91
2022-11-02T08:08:52.234Z,11.96
2022-11-02T08:09:51.151Z,11.99
2022-11-02T08:10:53.098Z,12.02
2022-11-02T08:11:51.097Z,12.02
2022-11-02T08:12:51.239Z,12.01
2022-11-02T08:13:51.054Z,11.99
2022-11-02T08:14:51.191Z,11.97
2022-11-02T08:15:58.152Z,11.97
2022-11-02T08:16:51.199Z,11.98
2022-11-02T08:17:51.072Z,12.00
2022-11-02T08:18:51.042Z,12.04
2022-11-02T08:19:51.264Z,12.10
2022-11-02T08:20:51.036Z,12.16
2022-11-02T08:21:57.365Z,12.22
2022-11-02T08:22:51.038Z,12.27
2022-11-02T08:23:53.614Z,12.32
2022-11-02T08:24:52.458Z,12.37
2022-11-02T08:25:50.950Z,12.42
2022-11-02T08:26:53.947Z,12.48
2022-11-02T08:27:51.929Z,12.56
2022-11-02T08:28:51.169Z,12.64
2022-11-02T08:29:50.988Z,12.72
2022-11-02T08:30:50.976Z,12.80
2022-11-02T08:31:50.854Z,12.86
2022-11-02T08:32:57.542Z,12.91
2022-11-02T08:33:50.800Z,12.95
2022-11-02T08:34:51.872Z,12.98
2022-11-02T08:35:50.809Z,13.01
2022-11-02T08:36:50.829Z,13.02
2022-11-02T08:37:57.217Z,13.03
2022-11-02T08:38:50.800Z,13.04
2022-11-02T08:39:50.753Z,13.04
2022-11-02T08:40:50.743Z,13.04
2022-11-02T08:41:50.713Z,13.03
2022-11-02T08:42:50.741Z,13.04
2022-11-02T08:43:51.635Z,13.06
2022-11-02T08:44:50.894Z,13.09
2022-11-02T08:46:51.748Z,13.15
2022-11-02T08:47:50.742Z,13.17
2022-11-02T08:48:56.952Z,13.18
2022-11-02T08:49:51.744Z,13.18
2022-11-02T08:50:51.730Z,13.18
2022-11-02T08:51:50.920Z,13.18
2022-11-02T08:52:50.659Z,13.17
2022-11-02T08:53:52.037Z,13.17
2022-11-02T08:54:50.605Z,13.16
2022-11-02T08:55:51.608Z,13.14
2022-11-02T08:56:50.531Z,13.10
2022-11-02T08:57:50.680Z,13.05
2022-11-02T08:58:51.483Z,13.00
2022-11-02T08:59:50.535Z,12.95
2022-11-02T09:00:51.584Z,12.91
2022-11-02T09:01:51.519Z,12.86
2022-11-02T09:02:50.548Z,12.82
2022-11-02T09:03:50.476Z,12.79
2022-11-02T09:04:50.442Z,12.75
2022-11-02T09:05:50.365Z,12.72
2022-11-02T09:06:50.380Z,12.69
2022-11-02T09:07:51.344Z,12.67
2022-11-02T09:08:52.761Z,12.65
2022-11-02T09:09:51.870Z,12.64
2022-11-02T09:10:50.560Z,12.62
2022-11-02T09:11:50.498Z,12.61
2022-11-02T09:12:54.414Z,12.62
2022-11-02T09:13:55.738Z,12.64
2022-11-02T09:14:52.782Z,12.67
2022-11-02T09:15:50.371Z,12.73
2022-11-02T09:16:50.306Z,12.79
2022-11-02T09:17:50.282Z,12.86
2022-11-02T09:18:50.261Z,12.93
2022-11-02T09:19:56.491Z,12.98
2022-11-02T09:20:50.328Z,13.01
2022-11-02T09:21:50.240Z,13.03
2022-11-02T09:22:50.336Z,13.05
2022-11-02T09:23:50.284Z,13.07
2022-11-02T09:24:50.138Z,13.09
2022-11-02T09:25:51.088Z,13.10
2022-11-02T09:26:50.229Z,13.12
2022-11-02T09:27:55.146Z,13.13
2022-11-02T09:28:52.273Z,13.14
2022-11-02T09:29:50.464Z,13.15
2022-11-02T09:30:50.039Z,13.16
2022-11-02T09:31:51.056Z,13.17
2022-11-02T09:32:50.144Z,13.18
2022-11-02T09:33:50.185Z,13.20
2022-11-02T09:34:50.146Z,13.22
2022-11-02T09:35:54.528Z,13.23
2022-11-02T09:36:50.055Z,13.25
2022-11-02T09:37:51.166Z,13.27
2022-11-02T09:38:49.978Z,13.29
2022-11-02T09:39:50.200Z,13.31
2022-11-02T09:40:49.986Z,13.33
2022-11-02T09:41:49.990Z,13.35
2022-11-02T09:42:50.947Z,13.38
2022-11-02T09:43:49.942Z,13.41
2022-11-02T09:44:50.020Z,13.43
2022-11-02T09:45:49.860Z,13.46
2022-11-02T09:47:17.683Z,13.49
2022-11-02T09:49:13.107Z,13.55
2022-11-02T09:49:49.998Z,13.58
2022-11-02T09:50:50.872Z,13.62
2022-11-02T09:51:49.855Z,13.65
2022-11-02T09:52:49.778Z,13.68
2022-11-02T09:53:49.907Z,13.72
2022-11-02T09:54:51.830Z,13.75
2022-11-02T09:55:49.860Z,13.78
2022-11-02T09:56:49.791Z,13.82
2022-11-02T09:57:49.730Z,13.87
2022-11-02T09:58:50.684Z,13.93
2022-11-02T09:59:50.779Z,13.99
2022-11-02T10:00:50.719Z,14.05
2022-11-02T10:01:50.548Z,14.12
2022-11-02T10:02:49.761Z,14.18
2022-11-02T10:03:50.057Z,14.24
2022-11-02T10:04:49.659Z,14.29
2022-11-02T10:05:49.995Z,14.34
2022-11-02T10:06:50.940Z,14.37
2022-11-02T10:07:49.636Z,14.40
2022-11-02T10:08:49.763Z,14.42
2022-11-02T10:09:52.685Z,14.44
2022-11-02T10:10:49.627Z,14.45
2022-11-02T10:11:50.507Z,14.46
2022-11-02T10:12:50.511Z,14.47
2022-11-02T10:13:52.535Z,14.48
2022-11-02T10:14:51.017Z,14.49
2022-11-02T10:15:49.527Z,14.50
2022-11-02T10:16:50.418Z,14.52
2022-11-02T10:17:50.407Z,14.54
2022-11-02T10:18:49.571Z,14.56
2022-11-02T10:19:49.691Z,14.58
2022-11-02T10:20:49.961Z,14.61
2022-11-02T10:21:49.417Z,14.64
2022-11-02T10:22:50.377Z,14.67
2022-11-02T10:23:49.447Z,14.70
2022-11-02T10:24:49.370Z,14.73
2022-11-02T10:25:52.088Z,14.76
2022-11-02T10:26:49.346Z,14.78
2022-11-02T10:27:50.468Z,14.81
2022-11-02T10:28:49.541Z,14.83
2022-11-02T10:29:49.362Z,14.85
2022-11-02T10:30:49.318Z,14.87
2022-11-02T10:31:49.320Z,14.89
2022-11-02T10:32:49.344Z,14.91
2022-11-02T10:33:58.045Z,14.93
2022-11-02T10:34:58.641Z,14.94
2022-11-02T10:36:12.617Z,14.96
2022-11-02T10:36:50.238Z,14.98
2022-11-02T10:37:49.278Z,15.00
2022-11-02T10:38:50.238Z,15.02
2022-11-02T10:39:49.286Z,15.04
2022-11-02T10:40:49.535Z,15.06
2022-11-02T10:41:49.153Z,15.08
2022-11-02T10:42:49.202Z,15.11
2022-11-02T10:43:52.228Z,15.13
2022-11-02T10:44:49.160Z,15.16
2022-11-02T10:45:49.125Z,15.19
2022-11-02T10:46:49.108Z,15.21
2022-11-02T10:47:49.140Z,15.24
2022-11-02T10:48:50.105Z,15.27
2022-11-02T10:49:50.057Z,15.30
2022-11-02T10:50:49.050Z,15.32
2022-11-02T10:51:49.067Z,15.35
2022-11-02T10:52:49.061Z,15.38
2022-11-02T10:53:50.425Z,15.40
2022-11-02T10:54:50.010Z,15.43
2022-11-02T10:55:49.977Z,15.46
2022-11-02T10:56:49.131Z,15.48
2022-11-02T10:57:49.412Z,15.50
2022-11-02T10:58:49.467Z,15.53
2022-11-02T10:59:51.252Z,15.55
2022-11-02T11:00:51.470Z,15.57
2022-11-02T11:01:48.904Z,15.59
2022-11-02T11:02:48.920Z,15.61
2022-11-02T11:03:48.880Z,15.62
2022-11-02T11:04:49.869Z,15.64
2022-11-02T11:05:49.824Z,15.66
2022-11-02T11:06:48.920Z,15.67
2022-11-02T11:07:48.884Z,15.69
2022-11-02T11:08:49.046Z,15.71
2022-11-02T11:09:48.789Z,15.73
2022-11-02T11:10:48.847Z,15.75
2022-11-02T11:11:49.701Z,15.76
2022-11-02T11:12:48.799Z,15.78
2022-11-02T11:15:49.825Z,15.88
2022-11-02T11:16:51.881Z,15.94
2022-11-02T11:19:49.686Z,16.14
2022-11-02T11:20:48.701Z,16.23
2022-11-02T11:21:49.900Z,16.31
2022-11-02T11:22:48.678Z,16.38
2022-11-02T11:23:49.586Z,16.43
2022-11-02T11:24:48.841Z,16.46
2022-11-02T11:25:48.599Z,16.48
2022-11-02T11:26:48.611Z,16.49
2022-11-02T11:27:48.575Z,16.51
2022-11-02T11:28:49.474Z,16.53
2022-11-02T11:29:48.521Z,16.57
2022-11-02T11:30:59.828Z,16.61
2022-11-02T11:31:50.013Z,16.63
2022-11-02T11:32:48.476Z,16.65
2022-11-02T11:33:48.468Z,16.68
2022-11-02T11:34:49.885Z,16.69
2022-11-02T11:35:48.525Z,16.70
2022-11-02T11:36:49.238Z,16.72
2022-11-02T11:37:48.576Z,16.74
2022-11-02T11:38:48.414Z,16.75
2022-11-02T11:39:52.443Z,16.74
2022-11-02T11:40:50.856Z,16.73
2022-11-02T11:41:48.438Z,16.75
2022-11-02T11:42:48.447Z,16.80
2022-11-02T11:43:48.383Z,16.87
2022-11-02T11:44:48.327Z,16.94
2022-11-02T11:45:50.006Z,16.99
2022-11-02T11:46:48.341Z,17.02
2022-11-02T11:47:48.283Z,17.03
2022-11-02T11:48:49.537Z,17.03
2022-11-02T11:50:11.351Z,17.01
2022-11-02T11:50:50.277Z,16.99
2022-11-02T11:51:49.597Z,16.97
2022-11-02T11:52:48.474Z,16.94
2022-11-02T11:53:48.313Z,16.90
2022-11-02T11:54:48.238Z,16.87
2022-11-02T11:55:49.143Z,16.86
2022-11-02T11:56:49.122Z,16.87
2022-11-02T11:57:48.232Z,16.89
2022-11-02T11:58:50.487Z,16.90
2022-11-02T11:59:48.548Z,16.89
2022-11-02T12:00:48.122Z,16.86
2022-11-02T12:01:48.243Z,16.84
2022-11-02T12:02:49.084Z,16.82
2022-11-02T12:03:48.414Z,16.81
2022-11-02T12:04:48.150Z,16.80
2022-11-02T12:05:48.540Z,16.79
2022-11-02T12:06:48.105Z,16.77
2022-11-02T12:07:53.485Z,16.74
2022-11-02T12:08:49.855Z,16.72
2022-11-02T12:09:48.160Z,16.69
2022-11-02T12:10:48.048Z,16.67
2022-11-02T12:11:48.058Z,16.65
2022-11-02T12:12:47.937Z,16.65
2022-11-02T12:13:48.903Z,16.67
2022-11-02T12:14:47.990Z,16.68
2022-11-02T12:15:47.927Z,16.70
2022-11-02T12:16:50.929Z,16.71
2022-11-02T12:17:47.886Z,16.74
2022-11-02T12:18:48.059Z,16.79
2022-11-02T12:19:48.828Z,16.86
2022-11-02T12:20:47.909Z,16.92
2022-11-02T12:21:47.890Z,16.97
2022-11-02T12:22:47.817Z,16.97
2022-11-02T12:23:47.908Z,16.94
2022-11-02T12:24:49.824Z,16.90
2022-11-02T12:25:47.825Z,16.86
2022-11-02T12:26:47.857Z,16.83
2022-11-02T12:27:47.781Z,16.81
2022-11-02T12:28:47.856Z,16.78
2022-11-02T12:29:47.832Z,16.75
2022-11-02T12:30:48.687Z,16.73
2022-11-02T12:31:47.745Z,16.72
2022-11-02T12:32:47.770Z,16.75
2022-11-02T12:33:47.972Z,16.82
2022-11-02T12:34:57.643Z,16.92
2022-11-02T12:35:50.088Z,17.04
2022-11-02T12:37:18.687Z,17.17
2022-11-02T12:37:48.667Z,17.28
2022-11-02T12:38:47.686Z,17.38
2022-11-02T12:39:47.940Z,17.47
2022-11-02T12:40:48.563Z,17.55
2022-11-02T12:41:47.592Z,17.64
2022-11-02T12:42:47.626Z,17.72
2022-11-02T12:43:47.652Z,17.76
2022-11-02T12:44:47.547Z,17.77
2022-11-02T12:45:47.555Z,17.77
2022-11-02T12:46:49.267Z,17.73
2022-11-02T12:47:47.987Z,17.66
2022-11-02T12:48:47.775Z,17.55
2022-11-02T12:49:47.482Z,17.44
2022-11-02T12:50:47.843Z,17.35
2022-11-02T12:51:48.407Z,17.28
2022-11-02T12:52:47.500Z,17.23
2022-11-02T12:53:47.572Z,17.18
2022-11-02T12:54:47.429Z,17.14
2022-11-02T12:55:47.412Z,17.12
2022-11-02T12:56:47.527Z,17.09
2022-11-02T12:57:48.313Z,17.04
2022-11-02T12:58:47.376Z,16.99
2022-11-02T12:59:47.408Z,16.93
2022-11-02T13:00:47.760Z,16.88
2022-11-02T13:01:47.345Z,16.84
2022-11-02T13:02:48.291Z,16.79
2022-11-02T13:03:47.375Z,16.75
2022-11-02T13:04:47.330Z,16.72
2022-11-02T13:05:47.298Z,16.70
2022-11-02T13:06:47.247Z,16.69
2022-11-02T13:07:47.260Z,16.69